Create Tblcommutelog Verified Points Advance Search
| # | Trip ID | Id Commuter | Trip Date | Trip Num | Current Lat | Current Lng | Delta Distance | Current Time | Activity | Activity Confidence | Current Speed | |
|---|---|---|---|---|---|---|---|---|---|---|---|---|
| 69321 | 250506_784108_16652594_1627 | 784108 | (not set) | (not set) | 39.116636252924 | -77.193924620243 | 10.0913 | 2025-05-06 20:45:24.264 | in_vehicle | 100 | 4.698382611961 | |
| 69322 | 250506_784160_16652033_1536 | 784160 | (not set) | (not set) | 38.699397655985 | -77.223031531494 | 20.3288 | 2025-05-06 20:45:25.866 | in_vehicle | 100 | 8.7664398687493 | |
| 69323 | 250506_784160_16652033_1536 | 784160 | (not set) | (not set) | 38.696248578654 | -77.223994658384 | 20.3288 | 2025-05-06 20:45:26.094 | in_vehicle | 100 | 9.651577601545 | |
| 69324 | 250506_700992_16557105_1618 | 700992 | (not set) | (not set) | 39.087339365957 | -77.173820944772 | 8.3338 | 2025-05-06 20:45:27.111 | in_vehicle | 100 | 8.158466476526 | |
| 69325 | 250506_761201_16627990_1636 | 761201 | (not set) | (not set) | 38.888125346121 | -77.050124080917 | 1.4958 | 2025-05-06 20:45:28.883 | in_vehicle | 100 | 1.6674564360242 | |
| 69326 | 250506_679555_16500693_1603 | 679555 | (not set) | (not set) | 38.794269987478 | -77.161195603205 | 13.622 | 2025-05-06 20:45:30.219 | in_vehicle | 100 | 8.9184332168051 | |
| 69327 | 250506_775454_16642917_1618 | 775454 | (not set) | (not set) | 39.12151270384 | -77.160959725115 | 5.2562 | 2025-05-06 20:45:31.394 | on_foot | 100 | 0.41574651085858 | |
| 69328 | 250506_765203_16513884_1602 | 765203 | (not set) | (not set) | 38.919100726661 | -76.952888419938 | 4.6502 | 2025-05-06 20:44:15.296 | still | 33 | 0.098348636977299 | |
| 69329 | 250506_774579_0_1635 | 774579 | (not set) | (not set) | 38.90437483447 | -77.022448690214 | 0.9225 | 2025-05-06 20:44:16.487 | on_foot | 100 | -0.44703925898772 | |
| 69330 | 250506_606167_16445164_1626 | 606167 | (not set) | (not set) | 38.878254607876 | -77.057054946665 | 2.7248 | 2025-05-06 20:44:18.261 | in_vehicle | 100 | 11.234096578362 | |
| 69331 | 250506_700992_16557105_1618 | 700992 | (not set) | (not set) | 39.073920592849 | -77.164510044687 | 7.2638 | 2025-05-06 20:44:20.121 | in_vehicle | 100 | 12.454513755398 | |
| 69332 | 250506_729627_16593495_1610 | 729627 | (not set) | (not set) | 38.927917814113 | -77.200902259323 | 11.3331 | 2025-05-06 20:44:20.417 | still | 33 | 6.4597172923726 | |
| 69333 | 250506_679555_16500693_1603 | 679555 | (not set) | (not set) | 38.797937079389 | -77.147254278819 | 12.828 | 2025-05-06 20:44:21.622 | in_vehicle | 100 | 8.1897592246551 | |
| 69334 | 250506_738572_16603589_1634 | 738572 | (not set) | (not set) | 38.90125514254 | -77.019427011587 | 0 | 2025-05-06 20:44:21.699 | on_foot | 100 | 1.2159467844466 | |
| 69335 | 250506_738572_16603589_1634 | 738572 | (not set) | (not set) | 38.90125514254 | -77.019427011587 | 0.2492 | 2025-05-06 20:44:21.82 | on_foot | 100 | 1.2159467844466 | |
| 69336 | 250506_780809_16648486_1610 | 780809 | (not set) | (not set) | 38.928082926607 | -77.201286184633 | 10.5954 | 2025-05-06 20:44:22.198 | in_vehicle | 100 | 5.2482409005159 | |
| 69337 | 250506_774579_0_1635 | 774579 | (not set) | (not set) | 38.90262711924 | -77.022185662034 | 0.9225 | 2025-05-06 20:44:22.832 | on_foot | 100 | -0.44703925898772 | |
| 69338 | 250506_780809_16648486_1610 | 780809 | (not set) | (not set) | 38.928175156787 | -77.201462303498 | 10.6069 | 2025-05-06 20:44:24.108 | in_vehicle | 100 | 4.0993500049174 | |
| 69339 | 250506_753953_16620128_1604 | 753953 | (not set) | (not set) | 38.845872067474 | -77.119139013871 | 7.6924 | 2025-05-06 20:44:24.278 | in_vehicle | 100 | 3.8445376272944 | |
| 69340 | 250506_784608_16652580_1642 | 784608 | (not set) | (not set) | 38.884300106926 | -77.018398205332 | 0.1061 | 2025-05-06 20:44:24.815 | on_foot | 100 | 0.50515436265613 |